Hinds Junior College, Mississippi
Current Conditions -  °F | °C
As of 3:35 AM on Friday 24 Oct 2014 (Local Time) from KJVW Reporting Station
Haze Haze  
Wind Chill: 43°   Ceiling: 500
Heat Index: 43°   Visibility: 0.75mi
Dew Point: 37°   Wind: 0mph
Humidity: 81%   Direction: NA
Pressure: 30.11"   Gusts: NA
Location:  32.1194°N, 90.6077°W
Report Text: KJVW 240835Z AUTO 00000KT 3/4SM HZ VV005 06/03 A3011 RMK AO2
Loading
Personal Weather Stations






























Interactive Weather Map
Tropical Storm Tracking
New forecast layout! Learn more

10-Day Weather Forecast

Advertisements
Track Severe Weather on mobile